sensor_id;sensor_type;location;lat;lon;timestamp;P1;durP1;ratioP1;P2;durP2;ratioP2
75787;SDS011;64406;50.024;14.492;2024-02-23T00:01:43;2.42;;;0.90;;
75787;SDS011;64406;50.024;14.492;2024-02-23T00:04:10;1.83;;;0.80;;
75787;SDS011;64406;50.024;14.492;2024-02-23T00:06:36;2.15;;;0.90;;
75787;SDS011;64406;50.024;14.492;2024-02-23T00:09:01;1.77;;;0.80;;
75787;SDS011;64406;50.024;14.492;2024-02-23T00:11:27;1.55;;;1.10;;
75787;SDS011;64406;50.024;14.492;2024-02-23T00:13:53;1.58;;;1.00;;
75787;SDS011;64406;50.024;14.492;2024-02-23T00:16:19;1.50;;;0.90;;
75787;SDS011;64406;50.024;14.492;2024-02-23T00:18:45;1.33;;;1.02;;
75787;SDS011;64406;50.024;14.492;2024-02-23T00:21:11;1.50;;;0.90;;
75787;SDS011;64406;50.024;14.492;2024-02-23T00:23:36;1.17;;;0.80;;
75787;SDS011;64406;50.024;14.492;2024-02-23T00:26:02;1.65;;;0.75;;
75787;SDS011;64406;50.024;14.492;2024-02-23T00:28:28;1.67;;;0.80;;
75787;SDS011;64406;50.024;14.492;2024-02-23T00:30:54;1.15;;;0.95;;
75787;SDS011;64406;50.024;14.492;2024-02-23T00:33:19;1.60;;;1.08;;
75787;SDS011;64406;50.024;14.492;2024-02-23T00:35:45;1.25;;;0.80;;
75787;SDS011;64406;50.024;14.492;2024-02-23T00:38:10;1.30;;;1.10;;
75787;SDS011;64406;50.024;14.492;2024-02-23T00:40:36;1.42;;;0.93;;
75787;SDS011;64406;50.024;14.492;2024-02-23T00:43:02;2.05;;;1.25;;
75787;SDS011;64406;50.024;14.492;2024-02-23T00:45:28;1.95;;;1.00;;
75787;SDS011;64406;50.024;14.492;2024-02-23T00:47:54;1.35;;;0.80;;
75787;SDS011;64406;50.024;14.492;2024-02-23T00:50:19;1.05;;;0.70;;
75787;SDS011;64406;50.024;14.492;2024-02-23T00:52:45;1.00;;;0.90;;
75787;SDS011;64406;50.024;14.492;2024-02-23T00:55:11;1.48;;;0.80;;
75787;SDS011;64406;50.024;14.492;2024-02-23T00:57:37;1.10;;;0.65;;
75787;SDS011;64406;50.024;14.492;2024-02-23T01:00:03;2.42;;;0.98;;
75787;SDS011;64406;50.024;14.492;2024-02-23T01:02:30;1.63;;;1.08;;
75787;SDS011;64406;50.024;14.492;2024-02-23T01:04:58;1.35;;;0.90;;
75787;SDS011;64406;50.024;14.492;2024-02-23T01:07:24;1.85;;;1.05;;
75787;SDS011;64406;50.024;14.492;2024-02-23T01:09:50;0.57;;;0.57;;
75787;SDS011;64406;50.024;14.492;2024-02-23T01:12:16;1.13;;;0.80;;
75787;SDS011;64406;50.024;14.492;2024-02-23T01:14:42;1.25;;;0.95;;
75787;SDS011;64406;50.024;14.492;2024-02-23T01:17:07;1.02;;;0.63;;
75787;SDS011;64406;50.024;14.492;2024-02-23T01:19:33;0.70;;;0.70;;
75787;SDS011;64406;50.024;14.492;2024-02-23T01:21:58;1.70;;;1.05;;
75787;SDS011;64406;50.024;14.492;2024-02-23T01:24:27;1.10;;;0.93;;
75787;SDS011;64406;50.024;14.492;2024-02-23T01:26:54;1.35;;;0.73;;
75787;SDS011;64406;50.024;14.492;2024-02-23T01:29:23;1.13;;;0.70;;
75787;SDS011;64406;50.024;14.492;2024-02-23T01:31:50;1.92;;;0.60;;
75787;SDS011;64406;50.024;14.492;2024-02-23T01:34:17;1.08;;;0.88;;
75787;SDS011;64406;50.024;14.492;2024-02-23T01:36:43;1.10;;;0.70;;
75787;SDS011;64406;50.024;14.492;2024-02-23T01:39:09;2.35;;;0.98;;
75787;SDS011;64406;50.024;14.492;2024-02-23T01:41:35;1.20;;;0.90;;
75787;SDS011;64406;50.024;14.492;2024-02-23T01:44:01;1.00;;;0.90;;
75787;SDS011;64406;50.024;14.492;2024-02-23T01:46:26;3.05;;;1.05;;
75787;SDS011;64406;50.024;14.492;2024-02-23T01:48:52;1.63;;;0.75;;
75787;SDS011;64406;50.024;14.492;2024-02-23T01:51:18;3.13;;;1.27;;
75787;SDS011;64406;50.024;14.492;2024-02-23T01:53:44;0.50;;;0.50;;
75787;SDS011;64406;50.024;14.492;2024-02-23T01:56:09;0.95;;;0.75;;
75787;SDS011;64406;50.024;14.492;2024-02-23T01:58:37;0.75;;;0.50;;
75787;SDS011;64406;50.024;14.492;2024-02-23T02:01:03;1.23;;;0.98;;
75787;SDS011;64406;50.024;14.492;2024-02-23T02:03:29;1.63;;;0.55;;
75787;SDS011;64406;50.024;14.492;2024-02-23T02:05:55;0.90;;;0.60;;
75787;SDS011;64406;50.024;14.492;2024-02-23T02:08:25;0.65;;;0.50;;
75787;SDS011;64406;50.024;14.492;2024-02-23T02:10:51;0.55;;;0.40;;
75787;SDS011;64406;50.024;14.492;2024-02-23T02:13:16;0.40;;;0.40;;
75787;SDS011;64406;50.024;14.492;2024-02-23T02:15:42;0.50;;;0.40;;
75787;SDS011;64406;50.024;14.492;2024-02-23T02:18:09;0.73;;;0.40;;
75787;SDS011;64406;50.024;14.492;2024-02-23T02:20:36;0.40;;;0.30;;
75787;SDS011;64406;50.024;14.492;2024-02-23T02:23:02;0.40;;;0.40;;
75787;SDS011;64406;50.024;14.492;2024-02-23T02:25:28;0.47;;;0.40;;
75787;SDS011;64406;50.024;14.492;2024-02-23T02:27:54;0.35;;;0.35;;
75787;SDS011;64406;50.024;14.492;2024-02-23T02:30:19;0.93;;;0.30;;
75787;SDS011;64406;50.024;14.492;2024-02-23T02:32:45;0.57;;;0.43;;
75787;SDS011;64406;50.024;14.492;2024-02-23T02:35:11;0.98;;;0.52;;
75787;SDS011;64406;50.024;14.492;2024-02-23T02:37:37;0.40;;;0.40;;
75787;SDS011;64406;50.024;14.492;2024-02-23T02:40:04;1.17;;;0.60;;
75787;SDS011;64406;50.024;14.492;2024-02-23T02:42:30;0.63;;;0.52;;
75787;SDS011;64406;50.024;14.492;2024-02-23T02:44:56;0.60;;;0.50;;
75787;SDS011;64406;50.024;14.492;2024-02-23T02:47:21;1.40;;;0.60;;
75787;SDS011;64406;50.024;14.492;2024-02-23T02:49:48;0.45;;;0.45;;
75787;SDS011;64406;50.024;14.492;2024-02-23T02:52:14;0.43;;;0.43;;
75787;SDS011;64406;50.024;14.492;2024-02-23T02:54:39;0.95;;;0.30;;
75787;SDS011;64406;50.024;14.492;2024-02-23T02:57:05;1.33;;;0.50;;
75787;SDS011;64406;50.024;14.492;2024-02-23T02:59:33;0.40;;;0.30;;
75787;SDS011;64406;50.024;14.492;2024-02-23T03:02:01;0.20;;;0.20;;
75787;SDS011;64406;50.024;14.492;2024-02-23T03:04:26;0.55;;;0.20;;
75787;SDS011;64406;50.024;14.492;2024-02-23T03:06:52;0.63;;;0.40;;
75787;SDS011;64406;50.024;14.492;2024-02-23T03:09:17;0.57;;;0.30;;
75787;SDS011;64406;50.024;14.492;2024-02-23T03:11:43;1.45;;;0.30;;
75787;SDS011;64406;50.024;14.492;2024-02-23T03:14:08;0.30;;;0.30;;
75787;SDS011;64406;50.024;14.492;2024-02-23T03:16:35;0.65;;;0.47;;
75787;SDS011;64406;50.024;14.492;2024-02-23T03:19:02;1.65;;;0.93;;
75787;SDS011;64406;50.024;14.492;2024-02-23T03:21:28;0.30;;;0.30;;
75787;SDS011;64406;50.024;14.492;2024-02-23T03:23:54;0.38;;;0.32;;
75787;SDS011;64406;50.024;14.492;2024-02-23T03:26:20;0.43;;;0.40;;
75787;SDS011;64406;50.024;14.492;2024-02-23T03:28:45;0.50;;;0.50;;
75787;SDS011;64406;50.024;14.492;2024-02-23T03:31:11;0.55;;;0.38;;
75787;SDS011;64406;50.024;14.492;2024-02-23T03:33:37;0.75;;;0.30;;
75787;SDS011;64406;50.024;14.492;2024-02-23T03:36:03;0.93;;;0.35;;
75787;SDS011;64406;50.024;14.492;2024-02-23T03:38:28;1.10;;;0.30;;
75787;SDS011;64406;50.024;14.492;2024-02-23T03:40:55;0.95;;;0.32;;
75787;SDS011;64406;50.024;14.492;2024-02-23T03:43:21;0.40;;;0.20;;
75787;SDS011;64406;50.024;14.492;2024-02-23T03:45:47;0.50;;;0.40;;
75787;SDS011;64406;50.024;14.492;2024-02-23T03:48:13;0.30;;;0.20;;
75787;SDS011;64406;50.024;14.492;2024-02-23T03:50:38;0.93;;;0.30;;
75787;SDS011;64406;50.024;14.492;2024-02-23T03:53:04;0.17;;;0.17;;
75787;SDS011;64406;50.024;14.492;2024-02-23T03:55:30;0.25;;;0.20;;
75787;SDS011;64406;50.024;14.492;2024-02-23T03:57:55;0.73;;;0.30;;
75787;SDS011;64406;50.024;14.492;2024-02-23T04:00:21;0.45;;;0.30;;
75787;SDS011;64406;50.024;14.492;2024-02-23T04:02:48;0.32;;;0.20;;
75787;SDS011;64406;50.024;14.492;2024-02-23T04:05:14;0.22;;;0.22;;
75787;SDS011;64406;50.024;14.492;2024-02-23T04:07:40;0.47;;;0.40;;
75787;SDS011;64406;50.024;14.492;2024-02-23T04:10:06;0.30;;;0.30;;
75787;SDS011;64406;50.024;14.492;2024-02-23T04:12:32;0.32;;;0.32;;
75787;SDS011;64406;50.024;14.492;2024-02-23T04:14:58;0.65;;;0.20;;
75787;SDS011;64406;50.024;14.492;2024-02-23T04:17:23;0.38;;;0.32;;
75787;SDS011;64406;50.024;14.492;2024-02-23T04:19:49;0.10;;;0.10;;
75787;SDS011;64406;50.024;14.492;2024-02-23T04:22:14;0.20;;;0.20;;
75787;SDS011;64406;50.024;14.492;2024-02-23T04:24:40;0.52;;;0.30;;
75787;SDS011;64406;50.024;14.492;2024-02-23T04:27:07;0.10;;;0.10;;
75787;SDS011;64406;50.024;14.492;2024-02-23T04:29:33;0.30;;;0.30;;
75787;SDS011;64406;50.024;14.492;2024-02-23T04:31:59;0.10;;;0.10;;
75787;SDS011;64406;50.024;14.492;2024-02-23T04:34:25;0.40;;;0.20;;
75787;SDS011;64406;50.024;14.492;2024-02-23T04:36:51;0.70;;;0.28;;
75787;SDS011;64406;50.024;14.492;2024-02-23T04:39:17;0.40;;;0.30;;
75787;SDS011;64406;50.024;14.492;2024-02-23T04:41:42;0.30;;;0.30;;
75787;SDS011;64406;50.024;14.492;2024-02-23T04:44:08;0.70;;;0.20;;
75787;SDS011;64406;50.024;14.492;2024-02-23T04:46:33;0.20;;;0.17;;
75787;SDS011;64406;50.024;14.492;2024-02-23T04:49:00;0.20;;;0.20;;
75787;SDS011;64406;50.024;14.492;2024-02-23T04:51:26;0.10;;;0.10;;
75787;SDS011;64406;50.024;14.492;2024-02-23T04:53:51;0.45;;;0.10;;
75787;SDS011;64406;50.024;14.492;2024-02-23T04:56:17;0.50;;;0.30;;
75787;SDS011;64406;50.024;14.492;2024-02-23T04:58:43;0.10;;;0.10;;
75787;SDS011;64406;50.024;14.492;2024-02-23T05:01:09;0.10;;;0.10;;
75787;SDS011;64406;50.024;14.492;2024-02-23T05:03:36;1.58;;;0.30;;
75787;SDS011;64406;50.024;14.492;2024-02-23T05:06:02;0.35;;;0.20;;
75787;SDS011;64406;50.024;14.492;2024-02-23T05:08:28;0.55;;;0.30;;
75787;SDS011;64406;50.024;14.492;2024-02-23T05:10:55;1.17;;;0.28;;
75787;SDS011;64406;50.024;14.492;2024-02-23T05:13:22;0.30;;;0.30;;
75787;SDS011;64406;50.024;14.492;2024-02-23T05:15:48;0.10;;;0.10;;
75787;SDS011;64406;50.024;14.492;2024-02-23T05:18:14;0.85;;;0.30;;
75787;SDS011;64406;50.024;14.492;2024-02-23T05:20:39;0.10;;;0.10;;
75787;SDS011;64406;50.024;14.492;2024-02-23T05:23:05;0.68;;;0.30;;
75787;SDS011;64406;50.024;14.492;2024-02-23T05:25:30;0.40;;;0.40;;
75787;SDS011;64406;50.024;14.492;2024-02-23T05:27:56;0.50;;;0.50;;
75787;SDS011;64406;50.024;14.492;2024-02-23T05:30:22;2.60;;;0.50;;
75787;SDS011;64406;50.024;14.492;2024-02-23T05:32:48;0.20;;;0.20;;
75787;SDS011;64406;50.024;14.492;2024-02-23T05:35:13;0.57;;;0.20;;
75787;SDS011;64406;50.024;14.492;2024-02-23T05:37:40;1.27;;;0.35;;
75787;SDS011;64406;50.024;14.492;2024-02-23T05:40:06;0.60;;;0.38;;
75787;SDS011;64406;50.024;14.492;2024-02-23T05:42:36;0.70;;;0.60;;
75787;SDS011;64406;50.024;14.492;2024-02-23T05:45:02;1.40;;;0.50;;
75787;SDS011;64406;50.024;14.492;2024-02-23T05:47:30;1.25;;;0.50;;
75787;SDS011;64406;50.024;14.492;2024-02-23T05:49:56;1.13;;;0.40;;
75787;SDS011;64406;50.024;14.492;2024-02-23T05:52:21;0.40;;;0.30;;
75787;SDS011;64406;50.024;14.492;2024-02-23T05:54:47;1.55;;;0.98;;
75787;SDS011;64406;50.024;14.492;2024-02-23T05:57:13;0.57;;;0.25;;
75787;SDS011;64406;50.024;14.492;2024-02-23T05:59:38;0.13;;;0.13;;
75787;SDS011;64406;50.024;14.492;2024-02-23T06:02:04;3.28;;;0.40;;
75787;SDS011;64406;50.024;14.492;2024-02-23T06:04:29;0.08;;;0.08;;
75787;SDS011;64406;50.024;14.492;2024-02-23T06:06:55;0.57;;;0.20;;
75787;SDS011;64406;50.024;14.492;2024-02-23T06:09:21;0.80;;;0.30;;
75787;SDS011;64406;50.024;14.492;2024-02-23T06:11:47;0.90;;;0.40;;
75787;SDS011;64406;50.024;14.492;2024-02-23T06:14:12;1.10;;;0.40;;
75787;SDS011;64406;50.024;14.492;2024-02-23T06:16:38;1.85;;;0.35;;
75787;SDS011;64406;50.024;14.492;2024-02-23T06:19:05;0.50;;;0.20;;
75787;SDS011;64406;50.024;14.492;2024-02-23T06:21:31;0.28;;;0.20;;
75787;SDS011;64406;50.024;14.492;2024-02-23T06:23:57;2.92;;;0.57;;
75787;SDS011;64406;50.024;14.492;2024-02-23T06:26:23;0.30;;;0.30;;
75787;SDS011;64406;50.024;14.492;2024-02-23T06:28:49;1.15;;;0.40;;
75787;SDS011;64406;50.024;14.492;2024-02-23T06:31:14;0.52;;;0.30;;
75787;SDS011;64406;50.024;14.492;2024-02-23T06:33:40;0.40;;;0.30;;
75787;SDS011;64406;50.024;14.492;2024-02-23T06:36:06;0.40;;;0.30;;
75787;SDS011;64406;50.024;14.492;2024-02-23T06:38:32;0.45;;;0.30;;
75787;SDS011;64406;50.024;14.492;2024-02-23T06:40:58;1.27;;;0.32;;
75787;SDS011;64406;50.024;14.492;2024-02-23T06:43:24;0.25;;;0.25;;
75787;SDS011;64406;50.024;14.492;2024-02-23T06:45:50;0.40;;;0.30;;
75787;SDS011;64406;50.024;14.492;2024-02-23T06:48:16;1.27;;;0.20;;
75787;SDS011;64406;50.024;14.492;2024-02-23T06:50:42;0.28;;;0.25;;
75787;SDS011;64406;50.024;14.492;2024-02-23T06:53:09;0.30;;;0.30;;
75787;SDS011;64406;50.024;14.492;2024-02-23T06:55:35;0.98;;;0.50;;
75787;SDS011;64406;50.024;14.492;2024-02-23T06:58:01;1.20;;;0.47;;
75787;SDS011;64406;50.024;14.492;2024-02-23T07:00:27;0.25;;;0.20;;
75787;SDS011;64406;50.024;14.492;2024-02-23T07:02:53;0.45;;;0.30;;
75787;SDS011;64406;50.024;14.492;2024-02-23T07:05:19;2.20;;;0.40;;
75787;SDS011;64406;50.024;14.492;2024-02-23T07:07:44;0.77;;;0.45;;
75787;SDS011;64406;50.024;14.492;2024-02-23T07:10:11;0.65;;;0.40;;
75787;SDS011;64406;50.024;14.492;2024-02-23T07:12:37;2.95;;;0.40;;
75787;SDS011;64406;50.024;14.492;2024-02-23T07:15:03;0.35;;;0.30;;
75787;SDS011;64406;50.024;14.492;2024-02-23T07:17:29;1.17;;;0.35;;
75787;SDS011;64406;50.024;14.492;2024-02-23T07:19:54;0.43;;;0.40;;
75787;SDS011;64406;50.024;14.492;2024-02-23T07:22:28;1.80;;;0.32;;
75787;SDS011;64406;50.024;14.492;2024-02-23T07:24:53;1.52;;;0.50;;
75787;SDS011;64406;50.024;14.492;2024-02-23T07:27:19;2.20;;;0.60;;
75787;SDS011;64406;50.024;14.492;2024-02-23T07:29:44;0.95;;;0.38;;
75787;SDS011;64406;50.024;14.492;2024-02-23T07:32:10;1.17;;;0.50;;
75787;SDS011;64406;50.024;14.492;2024-02-23T07:34:36;0.30;;;0.30;;
75787;SDS011;64406;50.024;14.492;2024-02-23T07:37:01;1.08;;;0.57;;
75787;SDS011;64406;50.024;14.492;2024-02-23T07:39:28;1.50;;;0.60;;
75787;SDS011;64406;50.024;14.492;2024-02-23T07:41:53;1.52;;;0.40;;
75787;SDS011;64406;50.024;14.492;2024-02-23T07:44:19;10.65;;;0.70;;
75787;SDS011;64406;50.024;14.492;2024-02-23T07:46:44;1.30;;;0.50;;
75787;SDS011;64406;50.024;14.492;2024-02-23T07:49:10;4.95;;;1.55;;
75787;SDS011;64406;50.024;14.492;2024-02-23T07:51:36;0.68;;;0.50;;
75787;SDS011;64406;50.024;14.492;2024-02-23T07:54:02;2.30;;;0.77;;
75787;SDS011;64406;50.024;14.492;2024-02-23T07:56:27;1.10;;;0.80;;
75787;SDS011;64406;50.024;14.492;2024-02-23T07:58:54;1.50;;;0.40;;
75787;SDS011;64406;50.024;14.492;2024-02-23T08:01:20;0.73;;;0.50;;
75787;SDS011;64406;50.024;14.492;2024-02-23T08:03:46;1.08;;;0.38;;
75787;SDS011;64406;50.024;14.492;2024-02-23T08:06:11;1.08;;;0.55;;
75787;SDS011;64406;50.024;14.492;2024-02-23T08:08:38;0.57;;;0.43;;
75787;SDS011;64406;50.024;14.492;2024-02-23T08:11:04;0.38;;;0.38;;
75787;SDS011;64406;50.024;14.492;2024-02-23T08:13:30;1.48;;;0.75;;
75787;SDS011;64406;50.024;14.492;2024-02-23T08:15:59;1.85;;;0.60;;
75787;SDS011;64406;50.024;14.492;2024-02-23T08:18:25;0.75;;;0.30;;
75787;SDS011;64406;50.024;14.492;2024-02-23T08:20:51;1.02;;;0.40;;
75787;SDS011;64406;50.024;14.492;2024-02-23T08:23:17;2.85;;;0.50;;
75787;SDS011;64406;50.024;14.492;2024-02-23T08:25:44;1.63;;;0.60;;
75787;SDS011;64406;50.024;14.492;2024-02-23T08:28:10;2.95;;;0.63;;
75787;SDS011;64406;50.024;14.492;2024-02-23T08:30:36;1.38;;;0.90;;
75787;SDS011;64406;50.024;14.492;2024-02-23T08:33:01;1.75;;;0.63;;
75787;SDS011;64406;50.024;14.492;2024-02-23T08:35:27;1.45;;;0.70;;
75787;SDS011;64406;50.024;14.492;2024-02-23T08:37:52;1.35;;;0.80;;
75787;SDS011;64406;50.024;14.492;2024-02-23T08:40:19;1.52;;;0.90;;
75787;SDS011;64406;50.024;14.492;2024-02-23T08:42:45;5.22;;;0.77;;
75787;SDS011;64406;50.024;14.492;2024-02-23T08:45:11;2.38;;;0.80;;
75787;SDS011;64406;50.024;14.492;2024-02-23T08:47:41;0.50;;;0.50;;
75787;SDS011;64406;50.024;14.492;2024-02-23T08:50:07;1.38;;;0.50;;
75787;SDS011;64406;50.024;14.492;2024-02-23T08:52:33;2.92;;;0.50;;
75787;SDS011;64406;50.024;14.492;2024-02-23T08:54:58;0.75;;;0.65;;
75787;SDS011;64406;50.024;14.492;2024-02-23T08:57:26;2.22;;;0.57;;
75787;SDS011;64406;50.024;14.492;2024-02-23T08:59:52;0.90;;;0.60;;
75787;SDS011;64406;50.024;14.492;2024-02-23T09:02:18;3.17;;;0.50;;
75787;SDS011;64406;50.024;14.492;2024-02-23T09:04:44;1.27;;;0.55;;
75787;SDS011;64406;50.024;14.492;2024-02-23T09:07:11;0.70;;;0.50;;
75787;SDS011;64406;50.024;14.492;2024-02-23T09:09:37;3.15;;;0.70;;
75787;SDS011;64406;50.024;14.492;2024-02-23T09:12:03;2.47;;;0.50;;
75787;SDS011;64406;50.024;14.492;2024-02-23T09:14:32;2.10;;;0.80;;
75787;SDS011;64406;50.024;14.492;2024-02-23T09:17:03;1.95;;;0.68;;
75787;SDS011;64406;50.024;14.492;2024-02-23T09:19:29;2.50;;;0.60;;
75787;SDS011;64406;50.024;14.492;2024-02-23T09:21:55;1.50;;;0.47;;
75787;SDS011;64406;50.024;14.492;2024-02-23T09:24:21;0.45;;;0.40;;
75787;SDS011;64406;50.024;14.492;2024-02-23T09:26:47;1.60;;;0.60;;
75787;SDS011;64406;50.024;14.492;2024-02-23T09:29:13;1.30;;;0.90;;
75787;SDS011;64406;50.024;14.492;2024-02-23T09:31:39;0.90;;;0.60;;
75787;SDS011;64406;50.024;14.492;2024-02-23T09:34:04;4.32;;;0.77;;
75787;SDS011;64406;50.024;14.492;2024-02-23T09:36:30;2.80;;;0.95;;
75787;SDS011;64406;50.024;14.492;2024-02-23T09:38:55;2.13;;;0.70;;
75787;SDS011;64406;50.024;14.492;2024-02-23T09:41:22;4.20;;;0.88;;
75787;SDS011;64406;50.024;14.492;2024-02-23T09:43:49;2.38;;;0.90;;
75787;SDS011;64406;50.024;14.492;2024-02-23T09:46:15;1.33;;;1.10;;
75787;SDS011;64406;50.024;14.492;2024-02-23T09:48:44;1.42;;;0.65;;
75787;SDS011;64406;50.024;14.492;2024-02-23T09:51:11;2.50;;;1.45;;
75787;SDS011;64406;50.024;14.492;2024-02-23T09:53:38;2.10;;;0.60;;
75787;SDS011;64406;50.024;14.492;2024-02-23T09:56:05;2.60;;;0.63;;
75787;SDS011;64406;50.024;14.492;2024-02-23T09:58:31;0.73;;;0.60;;
75787;SDS011;64406;50.024;14.492;2024-02-23T10:00:58;1.98;;;0.57;;
75787;SDS011;64406;50.024;14.492;2024-02-23T10:03:25;2.58;;;0.90;;
75787;SDS011;64406;50.024;14.492;2024-02-23T10:05:54;2.00;;;0.68;;
75787;SDS011;64406;50.024;14.492;2024-02-23T10:08:19;2.15;;;0.80;;
75787;SDS011;64406;50.024;14.492;2024-02-23T10:10:46;2.28;;;0.82;;
75787;SDS011;64406;50.024;14.492;2024-02-23T10:13:12;1.40;;;0.68;;
75787;SDS011;64406;50.024;14.492;2024-02-23T10:15:38;1.58;;;0.60;;
75787;SDS011;64406;50.024;14.492;2024-02-23T10:18:04;1.50;;;0.90;;
75787;SDS011;64406;50.024;14.492;2024-02-23T10:20:30;5.60;;;1.63;;
75787;SDS011;64406;50.024;14.492;2024-02-23T10:22:56;1.17;;;0.60;;
75787;SDS011;64406;50.024;14.492;2024-02-23T10:25:22;1.05;;;0.60;;
75787;SDS011;64406;50.024;14.492;2024-02-23T10:27:48;2.08;;;0.60;;
75787;SDS011;64406;50.024;14.492;2024-02-23T10:30:14;1.27;;;0.65;;
75787;SDS011;64406;50.024;14.492;2024-02-23T10:32:42;1.10;;;0.68;;
75787;SDS011;64406;50.024;14.492;2024-02-23T10:35:15;2.13;;;0.63;;
75787;SDS011;64406;50.024;14.492;2024-02-23T10:37:42;2.03;;;0.70;;
75787;SDS011;64406;50.024;14.492;2024-02-23T10:40:12;1.88;;;0.60;;
75787;SDS011;64406;50.024;14.492;2024-02-23T10:42:40;2.85;;;1.55;;
75787;SDS011;64406;50.024;14.492;2024-02-23T10:45:10;1.85;;;0.63;;
75787;SDS011;64406;50.024;14.492;2024-02-23T10:47:35;1.35;;;0.45;;
75787;SDS011;64406;50.024;14.492;2024-02-23T10:50:02;2.38;;;0.70;;
75787;SDS011;64406;50.024;14.492;2024-02-23T10:52:28;2.50;;;0.63;;
75787;SDS011;64406;50.024;14.492;2024-02-23T10:54:55;1.95;;;0.77;;
75787;SDS011;64406;50.024;14.492;2024-02-23T10:57:28;0.77;;;0.63;;
75787;SDS011;64406;50.024;14.492;2024-02-23T11:00:07;1.38;;;0.50;;
75787;SDS011;64406;50.024;14.492;2024-02-23T11:02:38;2.30;;;0.63;;
75787;SDS011;64406;50.024;14.492;2024-02-23T11:05:08;4.18;;;1.10;;
75787;SDS011;64406;50.024;14.492;2024-02-23T11:07:40;2.20;;;0.85;;
75787;SDS011;64406;50.024;14.492;2024-02-23T11:10:06;3.85;;;0.95;;
75787;SDS011;64406;50.024;14.492;2024-02-23T11:12:34;1.80;;;0.80;;
75787;SDS011;64406;50.024;14.492;2024-02-23T11:15:01;1.52;;;1.13;;
75787;SDS011;64406;50.024;14.492;2024-02-23T11:17:30;0.90;;;0.80;;
75787;SDS011;64406;50.024;14.492;2024-02-23T11:19:56;1.88;;;0.52;;
75787;SDS011;64406;50.024;14.492;2024-02-23T11:22:40;1.85;;;0.68;;
75787;SDS011;64406;50.024;14.492;2024-02-23T11:25:07;3.20;;;0.95;;
75787;SDS011;64406;50.024;14.492;2024-02-23T11:27:36;2.05;;;0.70;;
75787;SDS011;64406;50.024;14.492;2024-02-23T11:30:06;5.22;;;1.25;;
75787;SDS011;64406;50.024;14.492;2024-02-23T11:32:43;3.63;;;0.75;;
75787;SDS011;64406;50.024;14.492;2024-02-23T11:35:12;4.20;;;0.82;;
75787;SDS011;64406;50.024;14.492;2024-02-23T11:37:48;1.60;;;0.65;;
75787;SDS011;64406;50.024;14.492;2024-02-23T11:40:22;3.15;;;1.13;;
75787;SDS011;64406;50.024;14.492;2024-02-23T11:42:47;1.65;;;0.80;;
75787;SDS011;64406;50.024;14.492;2024-02-23T11:45:13;1.40;;;0.80;;
75787;SDS011;64406;50.024;14.492;2024-02-23T11:47:39;2.03;;;0.80;;
75787;SDS011;64406;50.024;14.492;2024-02-23T11:50:09;1.63;;;0.95;;
75787;SDS011;64406;50.024;14.492;2024-02-23T11:52:38;3.30;;;0.88;;
75787;SDS011;64406;50.024;14.492;2024-02-23T11:55:05;2.72;;;1.10;;
75787;SDS011;64406;50.024;14.492;2024-02-23T11:57:32;4.00;;;0.82;;
75787;SDS011;64406;50.024;14.492;2024-02-23T12:00:00;0.82;;;0.60;;
75787;SDS011;64406;50.024;14.492;2024-02-23T12:02:27;3.65;;;0.93;;
75787;SDS011;64406;50.024;14.492;2024-02-23T12:04:53;1.05;;;0.70;;
75787;SDS011;64406;50.024;14.492;2024-02-23T12:07:18;2.05;;;0.73;;
75787;SDS011;64406;50.024;14.492;2024-02-23T12:09:46;1.98;;;0.82;;
75787;SDS011;64406;50.024;14.492;2024-02-23T12:12:12;2.40;;;0.70;;
75787;SDS011;64406;50.024;14.492;2024-02-23T12:14:42;1.90;;;0.75;;
75787;SDS011;64406;50.024;14.492;2024-02-23T12:17:07;2.72;;;1.00;;
75787;SDS011;64406;50.024;14.492;2024-02-23T12:19:38;3.28;;;0.65;;
75787;SDS011;64406;50.024;14.492;2024-02-23T12:22:05;1.33;;;0.80;;
75787;SDS011;64406;50.024;14.492;2024-02-23T12:24:31;2.88;;;1.27;;
75787;SDS011;64406;50.024;14.492;2024-02-23T12:26:56;1.00;;;0.70;;
75787;SDS011;64406;50.024;14.492;2024-02-23T12:29:23;5.57;;;0.93;;
75787;SDS011;64406;50.024;14.492;2024-02-23T12:31:49;1.85;;;0.70;;
75787;SDS011;64406;50.024;14.492;2024-02-23T12:34:15;2.88;;;0.93;;
75787;SDS011;64406;50.024;14.492;2024-02-23T12:36:41;4.75;;;0.77;;
75787;SDS011;64406;50.024;14.492;2024-02-23T12:39:07;2.03;;;0.90;;
75787;SDS011;64406;50.024;14.492;2024-02-23T12:41:32;4.05;;;0.70;;
75787;SDS011;64406;50.024;14.492;2024-02-23T12:43:58;2.47;;;0.88;;
75787;SDS011;64406;50.024;14.492;2024-02-23T12:46:24;3.10;;;0.70;;
75787;SDS011;64406;50.024;14.492;2024-02-23T12:48:50;1.02;;;0.73;;
75787;SDS011;64406;50.024;14.492;2024-02-23T12:51:15;0.80;;;0.70;;
75787;SDS011;64406;50.024;14.492;2024-02-23T12:53:42;4.60;;;0.68;;
75787;SDS011;64406;50.024;14.492;2024-02-23T12:56:12;2.25;;;0.80;;
75787;SDS011;64406;50.024;14.492;2024-02-23T12:58:39;2.45;;;1.08;;
75787;SDS011;64406;50.024;14.492;2024-02-23T13:01:06;1.58;;;0.68;;
75787;SDS011;64406;50.024;14.492;2024-02-23T13:03:33;1.95;;;0.68;;
75787;SDS011;64406;50.024;14.492;2024-02-23T13:05:59;1.40;;;0.60;;
75787;SDS011;64406;50.024;14.492;2024-02-23T13:08:26;1.30;;;0.75;;
75787;SDS011;64406;50.024;14.492;2024-02-23T13:10:52;0.70;;;0.70;;
75787;SDS011;64406;50.024;14.492;2024-02-23T13:13:19;2.47;;;0.90;;
75787;SDS011;64406;50.024;14.492;2024-02-23T13:15:45;2.05;;;0.77;;
75787;SDS011;64406;50.024;14.492;2024-02-23T13:18:12;3.45;;;0.73;;
75787;SDS011;64406;50.024;14.492;2024-02-23T13:20:38;2.65;;;0.90;;
75787;SDS011;64406;50.024;14.492;2024-02-23T13:23:04;1.23;;;0.80;;
75787;SDS011;64406;50.024;14.492;2024-02-23T13:25:33;2.47;;;0.65;;
75787;SDS011;64406;50.024;14.492;2024-02-23T13:28:02;5.00;;;0.75;;
75787;SDS011;64406;50.024;14.492;2024-02-23T13:30:27;1.92;;;1.15;;
75787;SDS011;64406;50.024;14.492;2024-02-23T13:32:53;0.90;;;0.75;;
75787;SDS011;64406;50.024;14.492;2024-02-23T13:35:19;1.15;;;0.77;;
75787;SDS011;64406;50.024;14.492;2024-02-23T13:37:45;1.92;;;1.00;;
75787;SDS011;64406;50.024;14.492;2024-02-23T13:40:11;3.85;;;1.20;;
75787;SDS011;64406;50.024;14.492;2024-02-23T13:42:37;2.00;;;0.95;;
75787;SDS011;64406;50.024;14.492;2024-02-23T13:45:06;2.75;;;0.88;;
75787;SDS011;64406;50.024;14.492;2024-02-23T13:47:33;3.53;;;1.17;;
75787;SDS011;64406;50.024;14.492;2024-02-23T13:49:59;1.60;;;0.70;;
75787;SDS011;64406;50.024;14.492;2024-02-23T13:52:25;2.67;;;0.80;;
75787;SDS011;64406;50.024;14.492;2024-02-23T13:54:51;3.00;;;1.13;;
75787;SDS011;64406;50.024;14.492;2024-02-23T13:57:17;0.90;;;0.70;;
75787;SDS011;64406;50.024;14.492;2024-02-23T13:59:42;4.05;;;1.10;;
75787;SDS011;64406;50.024;14.492;2024-02-23T14:02:08;2.55;;;0.82;;
75787;SDS011;64406;50.024;14.492;2024-02-23T14:04:34;3.80;;;1.50;;
75787;SDS011;64406;50.024;14.492;2024-02-23T14:06:59;3.15;;;1.38;;
75787;SDS011;64406;50.024;14.492;2024-02-23T14:09:25;2.65;;;0.88;;
75787;SDS011;64406;50.024;14.492;2024-02-23T14:11:51;2.33;;;1.15;;
75787;SDS011;64406;50.024;14.492;2024-02-23T14:14:16;3.65;;;1.15;;
75787;SDS011;64406;50.024;14.492;2024-02-23T14:16:42;2.13;;;1.00;;
75787;SDS011;64406;50.024;14.492;2024-02-23T14:19:08;3.80;;;1.30;;
75787;SDS011;64406;50.024;14.492;2024-02-23T14:21:34;9.02;;;1.52;;
75787;SDS011;64406;50.024;14.492;2024-02-23T14:24:01;2.88;;;1.20;;
75787;SDS011;64406;50.024;14.492;2024-02-23T14:26:27;5.10;;;1.20;;
75787;SDS011;64406;50.024;14.492;2024-02-23T14:28:53;2.00;;;1.13;;